Time;durP1;ratioP1;P1;durP2;ratioP2;P2;SDS_P1;SDS_P2;PMS_P1;PMS_P2;Temp;Humidity;BMP_temperature;BMP_pressure;BME280_temperature;BME280_humidity;BME280_pressure;Samples;Min_cycle;Max_cycle;Signal;HPM_P1;HPM_P2
2022/06/26 00:01:11;;;;;;;0.80;0.30;;;;;;;9.44;100.00;98910.16;7396030;19;20021;-85
2022/06/26 00:03:37;;;;;;;0.20;0.20;;;;;;;9.39;100.00;98919.97;7392883;19;20371;-85
2022/06/26 00:06:03;;;;;;;1.00;0.55;;;;;;;9.36;100.00;98917.41;7392782;19;20334;-85
2022/06/26 00:08:30;;;;;;;0.50;0.50;;;;;;;9.34;100.00;98915.13;7394601;19;20025;-85
2022/06/26 00:10:56;;;;;;;3.45;0.70;;;;;;;9.32;100.00;98914.06;7393694;19;20495;-86
2022/06/26 00:13:22;;;;;;;0.55;0.55;;;;;;;9.28;100.00;98913.53;7393039;19;20348;-85
2022/06/26 00:15:49;;;;;;;0.30;0.30;;;;;;;9.27;100.00;98909.25;7394195;19;20022;-85
2022/06/26 00:18:15;;;;;;;0.28;0.28;;;;;;;9.25;100.00;98917.31;7394390;19;20430;-85
2022/06/26 00:20:42;;;;;;;0.45;0.45;;;;;;;9.23;100.00;98917.00;7394506;19;20019;-84
2022/06/26 00:23:08;;;;;;;0.60;0.60;;;;;;;9.20;100.00;98906.88;7394863;19;20022;-85
2022/06/26 00:25:34;;;;;;;0.30;0.30;;;;;;;9.19;100.00;98911.66;7394613;19;20021;-85
2022/06/26 00:28:00;;;;;;;0.82;0.65;;;;;;;9.21;100.00;98909.16;7392014;19;20034;-85
2022/06/26 00:30:27;;;;;;;3.90;0.52;;;;;;;9.21;100.00;98908.41;7395124;19;20022;-85
2022/06/26 00:32:53;;;;;;;0.50;0.50;;;;;;;9.18;100.00;98919.22;7393288;19;20025;-85
2022/06/26 00:35:19;;;;;;;4.95;1.08;;;;;;;9.15;100.00;98911.91;7392806;19;20013;-84
2022/06/26 00:37:46;;;;;;;4.88;0.50;;;;;;;9.15;100.00;98917.44;7391491;19;20015;-85
2022/06/26 00:40:12;;;;;;;1.27;0.40;;;;;;;9.16;100.00;98918.97;7397616;19;20436;-85
2022/06/26 00:42:38;;;;;;;0.55;0.55;;;;;;;9.14;100.00;98913.13;7392112;19;20011;-85
2022/06/26 00:45:05;;;;;;;0.65;0.60;;;;;;;9.15;100.00;98909.13;7393948;19;20028;-85
2022/06/26 00:47:32;;;;;;;0.68;0.45;;;;;;;9.13;100.00;98921.97;7392610;19;20022;-85
2022/06/26 00:49:59;;;;;;;0.50;0.45;;;;;;;9.13;100.00;98921.97;7396442;19;20082;-85
2022/06/26 00:52:27;;;;;;;0.45;0.45;;;;;;;9.12;100.00;98915.63;7391609;19;20387;-85
2022/06/26 00:54:54;;;;;;;0.40;0.40;;;;;;;9.16;100.00;98918.97;7391500;19;20089;-85
2022/06/26 00:57:21;;;;;;;0.35;0.32;;;;;;;9.16;100.00;98921.75;7391696;19;20474;-85
2022/06/26 00:59:49;;;;;;;3.53;0.60;;;;;;;9.16;100.00;98921.75;7394427;19;20493;-85
2022/06/26 01:02:16;;;;;;;0.60;0.60;;;;;;;9.18;100.00;98924.06;7392381;19;20108;-86
2022/06/26 01:04:42;;;;;;;0.20;0.20;;;;;;;9.17;100.00;98914.19;7392689;19;20022;-86
2022/06/26 01:07:09;;;;;;;0.60;0.60;;;;;;;9.20;100.00;98920.78;7391307;19;20020;-85
2022/06/26 01:09:35;;;;;;;0.30;0.30;;;;;;;9.20;100.00;98920.78;7391681;19;20023;-85
2022/06/26 01:12:02;;;;;;;0.55;0.55;;;;;;;9.20;100.00;98916.00;7389043;19;20037;-85
2022/06/26 01:14:30;;;;;;;2.53;0.73;;;;;;;9.22;100.00;98912.72;7388533;19;20022;-85
2022/06/26 01:16:56;;;;;;;5.47;0.50;;;;;;;9.24;100.00;98915.75;7389094;19;20082;-86
2022/06/26 01:19:24;;;;;;;0.95;0.65;;;;;;;9.24;100.00;98915.75;7394101;19;20035;-85
2022/06/26 01:21:50;;;;;;;0.50;0.50;;;;;;;9.23;100.00;98922.56;7392731;19;20394;-85
2022/06/26 01:24:17;;;;;;;11.68;0.50;;;;;;;9.25;100.00;98915.25;7391382;19;20018;-85
2022/06/26 01:26:43;;;;;;;3.40;0.45;;;;;;;9.30;100.00;98913.81;7389549;19;20397;-85
2022/06/26 01:29:10;;;;;;;0.38;0.38;;;;;;;9.29;100.00;98915.81;7392451;19;20018;-85
2022/06/26 01:31:37;;;;;;;0.30;0.30;;;;;;;9.29;100.00;98907.47;7389237;19;20018;-85
2022/06/26 01:34:08;;;;;;;1.95;0.57;;;;;;;9.30;100.00;98920.13;7393549;19;20572;-85
2022/06/26 01:36:35;;;;;;;0.65;0.65;;;;;;;9.33;100.00;98910.06;7391346;19;20018;-85
2022/06/26 01:39:03;;;;;;;0.43;0.43;;;;;;;9.37;100.00;98918.94;7392383;19;20347;-85
2022/06/26 01:41:30;;;;;;;0.57;0.57;;;;;;;9.42;100.00;98918.25;7390465;19;20006;-85
2022/06/26 01:43:57;;;;;;;0.20;0.20;;;;;;;9.42;100.00;98916.19;7390273;19;20025;-85
2022/06/26 01:46:25;;;;;;;0.47;0.47;;;;;;;9.43;100.00;98920.50;7388588;19;20016;-85
2022/06/26 01:48:51;;;;;;;0.30;0.30;;;;;;;9.45;100.00;98917.25;7394896;19;20037;-85
2022/06/26 01:51:18;;;;;;;0.68;0.65;;;;;;;9.46;100.00;98913.22;7397529;19;20025;-85
2022/06/26 01:53:45;;;;;;;1.55;0.50;;;;;;;9.45;100.00;98911.69;7398082;19;20022;-85
2022/06/26 01:56:12;;;;;;;2.08;0.40;;;;;;;9.39;100.00;98899.75;7395954;19;20017;-85
2022/06/26 01:58:43;;;;;;;1.58;0.63;;;;;;;9.39;100.00;98911.63;7398416;19;20021;-85
2022/06/26 02:01:18;;;;;;;0.35;0.35;;;;;;;9.41;100.00;98917.47;7397629;19;20038;-85
2022/06/26 02:03:44;;;;;;;0.30;0.30;;;;;;;9.39;100.00;98916.44;7399136;19;20034;-85
2022/06/26 02:06:10;;;;;;;0.63;0.40;;;;;;;9.42;100.00;98916.19;7397472;19;20500;-85
2022/06/26 02:08:37;;;;;;;0.45;0.45;;;;;;;9.42;100.00;98915.47;7396453;19;20021;-85
2022/06/26 02:13:49;;;;;;;7.43;0.55;;;;;;;9.39;100.00;98921.97;7396705;19;20014;-85
2022/06/26 02:16:18;;;;;;;0.60;0.60;;;;;;;9.46;100.00;98921.56;7395209;19;20032;-85
2022/06/26 02:18:47;;;;;;;0.50;0.50;;;;;;;9.41;100.00;98916.69;7397976;19;20007;-84
2022/06/26 02:21:15;;;;;;;0.57;0.32;;;;;;;9.38;100.00;98926.00;7396423;19;20011;-85
2022/06/26 02:23:43;;;;;;;0.38;0.38;;;;;;;9.34;100.00;98925.47;7395793;19;20074;-85
2022/06/26 02:26:09;;;;;;;0.50;0.50;;;;;;;9.30;100.00;98924.91;7395601;19;20019;-84
2022/06/26 02:28:39;;;;;;;0.35;0.35;;;;;;;9.32;100.00;98931.50;7395710;19;20019;-85
2022/06/26 02:31:06;;;;;;;2.95;0.43;;;;;;;9.35;100.00;98922.22;7396360;19;20031;-84
2022/06/26 02:33:33;;;;;;;0.85;0.55;;;;;;;9.34;100.00;98925.47;7399278;19;20029;-85
2022/06/26 02:36:00;;;;;;;0.73;0.73;;;;;;;9.32;100.00;98927.97;7396152;19;20089;-85
2022/06/26 02:38:26;;;;;;;1.45;0.50;;;;;;;9.33;100.00;98923.94;7396334;19;20070;-85
2022/06/26 02:40:53;;;;;;;6.28;0.68;;;;;;;9.34;100.00;98931.78;7396152;19;20026;-85
2022/06/26 02:43:23;;;;;;;1.55;0.57;;;;;;;9.35;100.00;98929.78;7395575;19;20106;-86
2022/06/26 02:45:51;;;;;;;0.88;0.40;;;;;;;9.33;100.00;98927.50;7395125;19;20037;-85
2022/06/26 02:48:17;;;;;;;1.80;1.05;;;;;;;9.33;100.00;98918.38;7396045;19;20022;-85
2022/06/26 02:50:43;;;;;;;0.20;0.20;;;;;;;9.39;100.00;98921.97;7395164;19;20014;-85
2022/06/26 02:53:10;;;;;;;0.22;0.22;;;;;;;9.40;100.00;98923.53;7395080;19;20536;-84
2022/06/26 02:55:36;;;;;;;0.70;0.70;;;;;;;9.34;100.00;98919.91;7395241;19;20366;-85
2022/06/26 02:58:03;;;;;;;3.05;0.80;;;;;;;9.37;100.00;98908.59;7395673;19;20023;-85
2022/06/26 03:00:36;;;;;;;0.22;0.22;;;;;;;9.46;100.00;98918.78;7392792;19;20010;-85
2022/06/26 03:03:03;;;;;;;0.30;0.30;;;;;;;9.48;100.00;98919.03;7396104;19;20010;-85
2022/06/26 03:05:30;;;;;;;6.43;0.88;;;;;;;9.46;100.00;98904.88;7394924;19;20025;-85
2022/06/26 03:07:58;;;;;;;0.20;0.20;;;;;;;9.45;100.00;98909.66;7392786;19;20010;-84
2022/06/26 03:10:24;;;;;;;0.90;0.60;;;;;;;9.41;100.00;98902.81;7392142;19;20348;-84
2022/06/26 03:12:50;;;;;;;0.50;0.50;;;;;;;9.39;100.00;98914.41;7393738;19;20021;-85
2022/06/26 03:15:18;;;;;;;2.35;1.67;;;;;;;9.37;100.00;98914.16;7394214;19;20023;-85
2022/06/26 03:17:45;;;;;;;9.90;0.57;;;;;;;9.40;100.00;98907.59;7392412;19;20043;-85
2022/06/26 03:20:16;;;;;;;0.65;0.60;;;;;;;9.35;100.00;98905.53;7398625;19;20022;-85
2022/06/26 03:22:43;;;;;;;0.60;0.60;;;;;;;9.35;100.00;98905.53;7394880;19;20019;-85
2022/06/26 03:25:09;;;;;;;0.30;0.30;;;;;;;9.36;100.00;98901.50;7394398;19;20500;-85
2022/06/26 03:27:38;;;;;;;0.17;0.17;;;;;;;9.41;100.00;98900.03;7391863;19;20014;-85
2022/06/26 03:30:07;;;;;;;0.90;0.45;;;;;;;9.47;100.00;98900.84;7396333;19;20471;-85
2022/06/26 03:32:33;;;;;;;2.22;0.90;;;;;;;9.52;100.00;98902.91;7391977;19;20003;-85
2022/06/26 03:35:04;;;;;;;0.28;0.28;;;;;;;9.54;100.00;98898.38;7396800;19;20011;-85
2022/06/26 03:37:30;;;;;;;0.30;0.30;;;;;;;9.59;100.00;98908.03;7393413;19;20046;-85
2022/06/26 03:39:58;;;;;;;1.38;0.65;;;;;;;9.61;100.00;98916.66;7398331;19;20018;-85
2022/06/26 03:42:25;;;;;;;1.58;0.30;;;;;;;9.64;100.00;98912.88;7393856;19;20090;-85
2022/06/26 03:44:52;;;;;;;4.47;0.32;;;;;;;9.64;100.00;98910.09;7393622;19;20011;-84
2022/06/26 03:47:18;;;;;;;0.20;0.20;;;;;;;9.65;100.00;98917.19;7391643;19;20035;-85
2022/06/26 03:49:53;;;;;;;5.43;1.50;;;;;;;9.73;100.00;98909.91;7395217;19;20471;-85
2022/06/26 03:52:22;;;;;;;0.80;0.60;;;;;;;9.78;100.00;98914.78;7391242;19;20031;-85
2022/06/26 03:54:49;;;;;;;0.25;0.25;;;;;;;9.80;100.00;98906.69;7391306;19;20017;-85
2022/06/26 03:57:19;;;;;;;0.20;0.20;;;;;;;9.77;100.00;98916.78;7391630;19;20042;-85
2022/06/26 03:59:45;;;;;;;0.77;0.43;;;;;;;9.76;100.00;98914.50;7396880;19;20019;-85
2022/06/26 04:02:18;;;;;;;0.40;0.40;;;;;;;9.79;100.00;98905.94;7393777;19;20387;-85
2022/06/26 04:04:46;;;;;;;0.30;0.30;;;;;;;9.80;100.00;98915.81;7393285;19;20147;-85
2022/06/26 04:07:12;;;;;;;4.50;0.38;;;;;;;9.78;100.00;98917.56;7391557;19;20510;-86
2022/06/26 04:09:41;;;;;;;0.28;0.28;;;;;;;9.81;100.00;98924.91;7394239;19;20022;-85
2022/06/26 04:12:09;;;;;;;1.65;0.80;;;;;;;9.85;100.00;98920.63;7391968;19;20018;-84
2022/06/26 04:14:39;;;;;;;0.47;0.47;;;;;;;9.90;100.00;98930.28;7392443;19;20018;-85
2022/06/26 04:17:06;;;;;;;0.80;0.30;;;;;;;9.93;100.00;98926.53;7391226;19;20019;-85
2022/06/26 04:19:34;;;;;;;0.52;0.43;;;;;;;9.92;100.00;98930.53;7395200;19;20018;-85
2022/06/26 04:22:00;;;;;;;0.57;0.57;;;;;;;9.92;100.00;98930.53;7392297;19;20021;-85
2022/06/26 04:24:27;;;;;;;2.20;0.93;;;;;;;9.92;100.00;98936.09;7391949;19;20018;-85
2022/06/26 04:26:53;;;;;;;1.42;0.30;;;;;;;9.97;100.00;98938.19;7391508;19;20010;-85
2022/06/26 04:29:19;;;;;;;0.68;0.68;;;;;;;10.00;100.00;98948.34;7393236;19;20356;-85
2022/06/26 04:31:46;;;;;;;0.10;0.10;;;;;;;10.03;100.00;98949.38;7392339;19;20014;-85
2022/06/26 04:34:12;;;;;;;5.20;1.33;;;;;;;10.06;100.00;98946.34;7395016;19;20472;-84
2022/06/26 04:36:38;;;;;;;0.40;0.40;;;;;;;10.10;100.00;98946.88;7390818;19;20090;-85
2022/06/26 04:39:05;;;;;;;0.30;0.30;;;;;;;10.08;100.00;98941.06;7393799;19;20014;-85
2022/06/26 04:41:31;;;;;;;0.10;0.10;;;;;;;10.10;100.00;98935.75;7393736;19;20044;-85
2022/06/26 04:43:58;;;;;;;0.52;0.30;;;;;;;10.13;100.00;98945.94;7392007;19;20124;-85
2022/06/26 04:46:25;;;;;;;1.17;0.57;;;;;;;10.24;100.00;98946.03;7392969;19;20025;-85
2022/06/26 04:48:52;;;;;;;0.30;0.30;;;;;;;10.33;100.00;98945.06;7392209;19;20010;-85
2022/06/26 04:51:20;;;;;;;0.10;0.10;;;;;;;10.35;100.00;98942.53;7391563;19;20393;-85
2022/06/26 04:53:46;;;;;;;0.52;0.52;;;;;;;10.37;100.00;98951.91;7391219;19;20114;-85
2022/06/26 04:56:12;;;;;;;0.68;0.50;;;;;;;10.39;100.00;98954.97;7390562;19;20017;-84
2022/06/26 04:58:49;;;;;;;2.58;0.93;;;;;;;10.52;100.00;98954.53;7392207;19;20033;-85
2022/06/26 05:01:15;;;;;;;0.50;0.28;;;;;;;10.58;100.00;98956.09;7391279;19;20021;-85
2022/06/26 05:04:07;;;;;;;0.30;0.30;;;;;;;10.68;100.00;98949.06;7392185;19;20019;-84
2022/06/26 05:06:53;;;;;;;2.92;0.63;;;;;;;10.81;100.00;98951.41;7388883;19;20047;-84
2022/06/26 05:09:23;;;;;;;0.75;0.63;;;;;;;10.96;100.00;98957.53;7392005;19;20033;-85
2022/06/26 05:11:49;;;;;;;0.57;0.40;;;;;;;11.12;100.00;98956.09;7390295;19;20018;-84
2022/06/26 05:14:17;;;;;;;0.30;0.30;;;;;;;11.26;100.00;98946.78;7391021;19;20295;-84
2022/06/26 05:16:54;;;;;;;0.38;0.38;;;;;;;11.27;100.00;98956.66;7391310;19;20018;-85
2022/06/26 05:19:26;;;;;;;0.95;0.57;;;;;;;11.31;100.00;98940.44;7394736;19;20468;-84
2022/06/26 05:21:53;;;;;;;1.38;0.65;;;;;;;11.39;100.00;98952.66;7392553;19;20014;-85
2022/06/26 05:24:20;;;;;;;0.20;0.20;;;;;;;11.43;100.00;98953.16;7397393;19;20022;-85
2022/06/26 05:26:48;;;;;;;1.38;0.50;;;;;;;11.48;100.00;98954.44;7397301;19;20018;-85
2022/06/26 05:29:14;;;;;;;0.30;0.30;;;;;;;11.48;100.00;98957.97;7398510;19;20018;-84
2022/06/26 05:31:40;;;;;;;5.93;0.70;;;;;;;11.42;100.00;98957.97;7400020;19;20026;-85
2022/06/26 05:34:07;;;;;;;0.70;0.20;;;;;;;11.39;100.00;98955.44;7401593;19;20480;-85
2022/06/26 05:36:33;;;;;;;0.30;0.30;;;;;;;11.42;100.00;98946.06;7399031;19;20022;-85
2022/06/26 05:39:01;;;;;;;0.80;0.50;;;;;;;11.46;100.00;98951.41;7400264;19;20011;-84
2022/06/26 05:41:31;;;;;;;0.50;0.20;;;;;;;11.54;100.00;98958.78;7397424;19;20015;-84
2022/06/26 05:43:57;;;;;;;2.65;0.73;;;;;;;11.55;100.00;98951.91;7397522;19;20025;-85
2022/06/26 05:46:26;;;;;;;1.70;0.22;;;;;;;11.59;100.00;98946.84;7396147;19;20018;-84
2022/06/26 05:48:52;;;;;;;0.20;0.20;;;;;;;11.61;100.00;98961.03;7398495;19;20019;-84
2022/06/26 05:51:24;;;;;;;0.20;0.20;;;;;;;11.73;100.00;98959.84;7399115;19;20038;-85
2022/06/26 05:54:23;;;;;;;2.72;0.47;;;;;;;11.92;100.00;98960.88;7396953;19;20019;-85
2022/06/26 05:57:21;;;;;;;0.43;0.20;;;;;;;11.99;100.00;98960.38;7394100;19;20014;-84
2022/06/26 06:00:14;;;;;;;0.40;0.40;;;;;;;12.22;100.00;98957.56;7396324;19;20022;-85
2022/06/26 06:02:52;;;;;;;0.68;0.32;;;;;;;12.35;100.00;98955.78;7396970;19;20022;-84
2022/06/26 06:05:20;;;;;;;0.57;0.50;;;;;;;12.34;100.00;98951.47;7397891;19;20018;-85
2022/06/26 06:07:48;;;;;;;0.10;0.10;;;;;;;12.37;100.00;98960.84;7393876;19;20007;-85
2022/06/26 06:10:14;;;;;;;0.52;0.52;;;;;;;12.39;100.00;98972.28;7398882;19;20018;-85
2022/06/26 06:12:42;;;;;;;0.20;0.20;;;;;;;12.51;100.00;98971.00;7396141;19;20014;-85
2022/06/26 06:15:09;;;;;;;2.40;0.32;;;;;;;12.64;100.00;98968.44;7395646;19;20057;-85
2022/06/26 06:17:42;;;;;;;3.90;0.80;;;;;;;12.76;100.00;98967.13;7395648;19;20361;-86
2022/06/26 06:20:15;;;;;;;0.47;0.47;;;;;;;12.90;100.00;98974.47;7401827;19;20007;-86
2022/06/26 06:22:54;;;;;;;2.28;0.63;;;;;;;13.10;100.00;98974.19;7397932;19;20018;-85
2022/06/26 06:25:23;;;;;;;0.30;0.30;;;;;;;13.45;100.00;98979.84;7397419;19;20029;-85
2022/06/26 06:27:49;;;;;;;0.57;0.57;;;;;;;13.69;100.00;98982.00;7395267;19;20017;-85
2022/06/26 06:30:23;;;;;;;3.60;0.17;;;;;;;13.78;100.00;98966.94;7396900;19;20014;-85
2022/06/26 06:32:50;;;;;;;0.30;0.28;;;;;;;13.85;100.00;98969.97;7395030;19;20018;-85
2022/06/26 06:35:40;;;;;;;1.10;0.25;;;;;;;13.99;100.00;98968.81;7393180;19;20027;-86
2022/06/26 06:38:08;;;;;;;0.30;0.30;;;;;;;14.09;100.00;98970.03;7395861;19;20020;-85
2022/06/26 06:40:35;;;;;;;2.60;0.40;;;;;;;14.27;100.00;98969.34;7396620;19;20031;-85
2022/06/26 06:43:02;;;;;;;1.08;0.35;;;;;;;14.37;100.00;98972.63;7396028;19;20015;-85
2022/06/26 06:45:47;;;;;;;0.10;0.00;;;;;;;14.36;100.00;98959.88;7396303;19;20021;-85
2022/06/26 06:48:13;;;;;;;0.35;0.28;;;;;;;14.41;100.00;98979.47;7395220;19;20032;-86
2022/06/26 06:50:40;;;;;;;3.50;0.40;;;;;;;14.45;100.00;98965.16;7396877;19;20014;-85
2022/06/26 06:53:07;;;;;;;1.33;0.93;;;;;;;14.47;100.00;98964.66;7395375;19;20078;-86
2022/06/26 06:55:34;;;;;;;0.10;0.10;;;;;;;14.55;100.00;98969.16;7395303;19;20011;-85
2022/06/26 06:58:00;;;;;;;1.65;0.38;;;;;;;14.67;100.00;98961.38;7395269;19;20014;-86
2022/06/26 07:00:27;;;;;;;5.13;0.45;;;;;;;14.84;100.00;98967.56;7395718;19;20014;-86
2022/06/26 07:02:58;;;;;;;0.52;0.20;;;;;;;14.94;100.00;98968.75;7395653;19;20031;-85
2022/06/26 07:05:24;;;;;;;0.40;0.40;;;;;;;14.81;100.00;98966.56;7395963;19;20496;-86
2022/06/26 07:07:50;;;;;;;0.13;0.10;;;;;;;14.90;100.00;98969.03;7395593;19;20038;-86
2022/06/26 07:10:18;;;;;;;0.10;0.00;;;;;;;14.87;100.00;98969.31;7399818;19;20010;-87
2022/06/26 07:12:58;;;;;;;0.35;0.30;;;;;;;14.83;100.00;98978.03;7395725;19;20055;-87
2022/06/26 07:15:25;;;;;;;2.67;0.70;;;;;;;14.84;100.00;98970.38;7393837;19;20031;-88
2022/06/26 07:17:52;;;;;;;7.70;0.70;;;;;;;14.78;100.00;98978.84;7393450;19;20010;-88
2022/06/26 07:20:18;;;;;;;0.50;0.50;;;;;;;14.87;100.00;98975.69;7400625;19;20405;-87
2022/06/26 07:22:44;;;;;;;10.15;0.50;;;;;;;14.99;100.00;98987.53;7396120;19;20025;-88
2022/06/26 07:25:19;;;;;;;0.10;0.10;;;;;;;15.04;100.00;98984.69;7396116;19;20025;-88
2022/06/26 07:27:54;;;;;;;0.95;0.30;;;;;;;15.03;100.00;98988.75;7393170;19;20014;-88
2022/06/26 07:30:20;;;;;;;1.75;0.28;;;;;;;15.05;100.00;98993.84;7397732;19;20420;-87
2022/06/26 07:33:03;;;;;;;2.10;0.80;;;;;;;15.24;100.00;98991.06;7394677;19;20020;-87
2022/06/26 07:35:30;;;;;;;5.78;0.85;;;;;;;15.35;100.00;98997.31;7393126;19;20014;-88
2022/06/26 07:37:57;;;;;;;0.20;0.20;;;;;;;15.34;100.00;99001.41;7393304;19;20022;-88
2022/06/26 07:40:23;;;;;;;2.92;0.52;;;;;;;15.31;100.00;99001.72;7394385;19;20025;-88
2022/06/26 07:42:50;;;;;;;6.53;0.40;;;;;;;15.43;100.00;99003.09;7396405;19;20123;-89
2022/06/26 07:45:17;;;;;;;0.85;0.47;;;;;;;15.47;100.00;99003.56;7395647;19;20457;-87
2022/06/26 07:47:56;;;;;;;0.25;0.25;;;;;;;15.39;100.00;98997.78;7393346;19;20016;-88
2022/06/26 07:50:22;;;;;;;0.47;0.30;;;;;;;15.35;100.00;99008.53;7398438;19;20099;-88
2022/06/26 07:52:48;;;;;;;5.07;0.28;;;;;;;15.44;100.00;98999.75;7395414;19;20024;-89
2022/06/26 07:55:16;;;;;;;3.22;0.73;;;;;;;15.54;100.00;98994.56;7394149;19;20015;-88
2022/06/26 07:57:42;;;;;;;0.82;0.25;;;;;;;15.47;100.00;99020.41;7393478;19;20018;-88
2022/06/26 08:00:09;;;;;;;0.22;0.22;;;;;;;15.61;100.00;99013.59;7399268;19;20384;-88
2022/06/26 08:02:39;;;;;;;2.73;0.63;;;;;;;15.61;100.00;99010.78;7395530;19;20404;-88
2022/06/26 08:05:06;;;;;;;0.60;0.40;;;;;;;15.49;100.00;99017.81;7395766;19;20018;-89
2022/06/26 08:07:32;;;;;;;0.45;0.20;;;;;;;15.41;100.00;99011.28;7399338;19;20017;-87
2022/06/26 08:09:58;;;;;;;0.10;0.10;;;;;;;15.36;100.00;99009.28;7403165;19;20098;-87
2022/06/26 08:12:25;;;;;;;0.20;0.13;;;;;;;15.43;100.00;99008.69;7396668;19;20460;-87
2022/06/26 08:14:51;;;;;;;0.57;0.15;;;;;;;15.79;100.00;99012.81;7395180;19;20014;-89
2022/06/26 08:17:17;;;;;;;0.60;0.40;;;;;;;16.24;100.00;99024.91;7392783;19;20477;-89
2022/06/26 08:19:43;;;;;;;0.60;0.50;;;;;;;16.50;100.00;99030.66;7399136;19;20046;-88
2022/06/26 08:22:09;;;;;;;0.73;0.40;;;;;;;16.77;100.00;99022.28;7395560;19;20022;-88
2022/06/26 08:24:36;;;;;;;0.35;0.10;;;;;;;16.75;100.00;99027.69;7394413;19;20069;-89
2022/06/26 08:27:03;;;;;;;1.33;0.55;;;;;;;16.83;100.00;99029.31;7393120;19;20086;-89
2022/06/26 08:29:29;;;;;;;0.55;0.45;;;;;;;16.92;100.00;99030.97;7395358;19;20018;-88
2022/06/26 08:31:55;;;;;;;0.10;0.10;;;;;;;16.99;100.00;99024.69;7395850;19;20019;-89
2022/06/26 08:34:22;;;;;;;1.67;0.28;;;;;;;17.24;100.00;99026.75;7396844;19;20101;-88
2022/06/26 08:36:48;;;;;;;0.75;0.75;;;;;;;17.61;100.00;99033.47;7393564;19;20038;-88
2022/06/26 08:39:14;;;;;;;0.10;0.08;;;;;;;17.65;100.00;99031.84;7396054;19;20018;-88
2022/06/26 08:41:43;;;;;;;1.45;0.10;;;;;;;17.53;100.00;99022.13;7393909;19;20010;-88
2022/06/26 08:44:10;;;;;;;0.60;0.50;;;;;;;17.47;100.00;99023.50;7393771;19;20027;-88
2022/06/26 08:46:39;;;;;;;5.47;0.50;;;;;;;17.67;100.00;99032.03;7391977;19;20043;-89
2022/06/26 08:49:11;;;;;;;3.03;0.10;;;;;;;17.87;100.00;99017.28;7393808;19;20007;-89
2022/06/26 08:51:43;;;;;;;0.20;0.10;;;;;;;18.21;100.00;99022.16;7394448;19;20014;-89
2022/06/26 08:54:12;;;;;;;1.38;0.20;;;;;;;18.56;100.00;99030.03;7394332;19;20374;-89
2022/06/26 08:56:41;;;;;;;2.47;0.20;;;;;;;18.86;100.00;99025.38;7393050;19;20037;-89
2022/06/26 08:59:09;;;;;;;0.30;0.10;;;;;;;18.96;100.00;99028.47;7396163;19;20484;-89
2022/06/26 09:01:36;;;;;;;1.25;0.30;;;;;;;18.97;100.00;99024.38;7395414;19;20020;-90
2022/06/26 09:04:04;;;;;;;0.45;0.00;;;;;;;19.08;100.00;99034.59;7394867;19;20011;-89
2022/06/26 09:06:33;;;;;;;0.77;0.05;;;;;;;18.97;100.00;99017.97;7395400;19;20096;-90
2022/06/26 09:08:59;;;;;;;3.17;0.35;;;;;;;18.84;100.00;99030.81;7394941;19;20015;-90
2022/06/26 09:11:25;;;;;;;4.95;0.57;;;;;;;18.73;100.00;99033.19;7393624;19;20010;-90
2022/06/26 09:13:53;;;;;;;7.28;0.40;;;;;;;18.47;100.00;99030.53;7395376;19;20010;-89
2022/06/26 09:16:32;;;;;;;1.25;0.15;;;;;;;18.25;100.00;99028.19;7394130;19;20377;-89
2022/06/26 09:19:09;;;;;;;0.30;0.00;;;;;;;18.05;100.00;99030.44;7396811;19;20025;-89
2022/06/26 09:21:36;;;;;;;0.00;0.00;;;;;;;17.92;100.00;99030.50;7393031;19;20006;-89
2022/06/26 09:24:02;;;;;;;2.50;0.57;;;;;;;17.92;100.00;99024.84;7393503;19;20019;-90
2022/06/26 09:26:28;;;;;;;2.10;0.35;;;;;;;17.81;100.00;99027.91;7393458;19;20014;-88
2022/06/26 09:28:55;;;;;;;7.75;0.20;;;;;;;17.95;100.00;99026.56;7392932;19;20021;-89
2022/06/26 09:31:22;;;;;;;9.30;0.55;;;;;;;18.16;100.00;99021.75;7392633;19;20018;-89
2022/06/26 09:33:48;;;;;;;2.95;0.43;;;;;;;18.19;100.00;99034.72;7396311;19;20022;-90
2022/06/26 09:36:17;;;;;;;0.40;0.10;;;;;;;18.34;100.00;99036.19;7390927;19;20014;-88
2022/06/26 09:38:51;;;;;;;0.50;0.20;;;;;;;18.24;100.00;99033.06;7392581;19;20507;-90
2022/06/26 09:41:29;;;;;;;0.52;0.10;;;;;;;18.02;100.00;99053.31;7393170;19;20112;-88
2022/06/26 09:43:57;;;;;;;0.10;0.00;;;;;;;18.38;100.00;99036.59;7392339;19;20034;-90
2022/06/26 09:46:33;;;;;;;9.52;0.22;;;;;;;18.30;100.00;99044.22;7393278;19;20027;-89
2022/06/26 09:49:00;;;;;;;0.47;0.20;;;;;;;18.05;100.00;99038.91;7392557;19;20475;-89
2022/06/26 09:51:27;;;;;;;3.28;0.38;;;;;;;17.92;100.00;99038.94;7392118;19;20018;-90
2022/06/26 09:53:53;;;;;;;1.67;0.17;;;;;;;18.29;100.00;99045.53;7391413;19;20014;-89
2022/06/26 09:56:20;;;;;;;4.07;0.77;;;;;;;18.78;100.00;99038.69;7391955;19;20094;-89
2022/06/26 09:58:47;;;;;;;5.60;0.52;;;;;;;19.29;100.00;99043.75;7393066;19;20364;-89
2022/06/26 10:06:45;;;;;;;0.22;0.10;;;;;;;19.94;100.00;99050.88;7393765;19;20022;-86
2022/06/26 10:09:11;;;;;;;0.60;0.30;;;;;;;19.82;100.00;99056.09;7398140;19;20046;-88
2022/06/26 10:11:44;;;;;;;0.28;0.10;;;;;;;19.85;100.00;99054.25;7402844;19;20469;-88
2022/06/26 10:14:32;;;;;;;0.80;0.10;;;;;;;19.45;100.00;99054.59;7406576;19;20018;-88
2022/06/26 10:17:16;;;;;;;4.22;0.30;;;;;;;19.05;100.00;99053.38;7402453;19;20015;-88
2022/06/26 10:19:54;;;;;;;0.10;0.10;;;;;;;18.89;100.00;99051.75;7408849;19;20019;-87
2022/06/26 10:22:21;;;;;;;3.60;0.22;;;;;;;19.04;100.00;99057.50;7405134;19;20472;-87
2022/06/26 10:24:55;;;;;;;0.20;0.10;;;;;;;19.08;100.00;99045.88;7402338;19;20006;-87
2022/06/26 10:27:36;;;;;;;0.10;0.10;;;;;;;19.28;100.00;99047.88;7397531;19;20022;-89
2022/06/26 10:30:14;;;;;;;0.30;0.10;;;;;;;19.38;100.00;99041.19;7407486;19;20017;-88
2022/06/26 10:32:42;;;;;;;9.60;0.28;;;;;;;19.42;100.00;99046.50;7409055;19;20480;-89
2022/06/26 10:35:10;;;;;;;5.15;0.22;;;;;;;19.85;100.00;99045.75;7406090;19;20018;-89
2022/06/26 10:37:44;;;;;;;2.45;0.10;;;;;;;20.41;100.00;99042.75;7403220;19;20017;-89
2022/06/26 10:40:13;;;;;;;1.65;0.55;;;;;;;20.64;100.00;99043.53;7405446;19;20015;-87
2022/06/26 10:42:52;;;;;;;0.05;0.05;;;;;;;20.94;100.00;99042.78;7399772;19;20371;-88
2022/06/26 10:45:24;;;;;;;0.10;0.10;;;;;;;20.98;100.00;99041.09;7400233;19;20015;-87
2022/06/26 10:47:52;;;;;;;0.10;0.10;;;;;;;21.34;100.00;99042.94;7399603;19;20018;-88
2022/06/26 10:50:34;;;;;;;1.35;0.30;;;;;;;21.74;100.00;99049.47;7404214;19;20032;-88
2022/06/26 10:53:15;;;;;;;2.15;0.25;;;;;;;21.72;99.57;99046.44;7398912;19;20082;-88
2022/06/26 10:55:44;;;;;;;1.02;0.00;;;;;;;21.37;98.11;99038.97;7397952;19;20034;-87
2022/06/26 10:58:18;;;;;;;3.97;0.10;;;;;;;21.29;100.00;99049.59;7399660;19;20070;-87
2022/06/26 11:00:44;;;;;;;8.77;0.30;;;;;;;21.29;100.00;99039.00;7398135;19;20023;-88
2022/06/26 11:03:18;;;;;;;2.45;0.10;;;;;;;21.34;99.21;99034.44;7398295;19;20015;-88
2022/06/26 11:05:56;;;;;;;3.20;0.15;;;;;;;21.49;99.71;99034.41;7395400;19;20022;-87
2022/06/26 11:08:31;;;;;;;1.00;0.10;;;;;;;21.61;95.80;99055.34;7397033;19;20021;-87
2022/06/26 11:11:02;;;;;;;5.38;0.10;;;;;;;21.57;93.60;99047.22;7396502;19;20353;-87
2022/06/26 11:13:29;;;;;;;1.48;0.28;;;;;;;21.60;95.04;99043.25;7396742;19;20487;-87
2022/06/26 11:15:56;;;;;;;0.20;0.00;;;;;;;21.84;97.67;99028.47;7396604;19;20030;-87
2022/06/26 11:18:22;;;;;;;3.15;0.20;;;;;;;22.15;98.70;99029.06;7396204;19;20011;-87
2022/06/26 11:20:51;;;;;;;1.23;0.10;;;;;;;22.52;92.41;99039.41;7393033;19;20034;-88
2022/06/26 11:23:18;;;;;;;0.40;0.20;;;;;;;22.81;89.78;99036.97;7395407;19;20030;-86
2022/06/26 11:25:52;;;;;;;0.45;0.00;;;;;;;22.99;89.84;99026.41;7395264;19;20011;-87
2022/06/26 11:28:18;;;;;;;1.00;0.28;;;;;;;23.03;86.05;99035.25;7395455;19;20018;-88
2022/06/26 11:30:46;;;;;;;9.38;0.73;;;;;;;22.86;84.57;99029.53;7397192;19;20476;-87
2022/06/26 11:33:21;;;;;;;1.65;0.20;;;;;;;22.96;85.70;99028.31;7397122;19;20018;-88
2022/06/26 11:35:48;;;;;;;0.10;0.00;;;;;;;22.84;87.71;99018.00;7394847;19;20027;-89
2022/06/26 11:38:16;;;;;;;0.57;0.20;;;;;;;23.20;83.62;99023.91;7395368;19;20018;-88
2022/06/26 11:40:43;;;;;;;1.85;0.20;;;;;;;23.36;83.47;99028.16;7394973;19;20010;-88
2022/06/26 11:43:11;;;;;;;1.90;0.10;;;;;;;23.20;83.84;99021.84;7395039;19;20019;-89
2022/06/26 11:45:40;;;;;;;0.00;0.00;;;;;;;22.91;84.99;99025.72;7396023;19;20021;-87